Archival Weather

Chicago O'Hare International

Chicago, Illinois (KORD)

Report from: Tuesday, August 16, 2022 1:51 PM CDT
Current time: Friday, February 23, 2024 2:41 PM CST

Current weather – Weather history – Daily summaries
Weather forecast

Temperature26.7°C (80.1°F)
Heat index26.6°C (80.0°F)
Dew point8.9°C (48.0°F)
Winds 11 kts (5.7 m/s, 12.7 mph) East-Northeast (60°)
Wind gusts 18 kts (9.3 m/s, 20.7 mph)
Visibility10 mi. (16.1 km)
Clouds Few clouds 6,000 ft. (1,829 m)
Few clouds 18,000 ft. (5,486 m)
Few clouds 25,000 ft. (7,620 m)
Altimeter30.11 in.Hg (1020 mB)
Relative humidity33 %
Density altitude1,312 ft. (400 m)
Sea-level pressure101.9 kPa (1019 mB, 30.10 in.Hg)
Remarks Automated weather observing station with precipitation discriminator
Flight conditions Visual Meteorological Conditions
Raw dataKORD 161851Z 06011G18KT 10SM FEW060 FEW180 FEW250 27/09 A3011 RMK AO2 SLP193 T02670089
An error has occurred. This application may no longer respond until reloaded. Reload 🗙